Friday, August 26, 2016
13:45 UTC
  |  Log In   |  Register Free
Airport Search:

Coleman Municipal Airport
(KCOM)

Coleman Municipal Airport Diagram
No Airport Diagram Available

FAA data valid effective Jul 21 2016 - Sep 15 2016 (unless otherwise noted).

 
 
 
 
 
 
 
 
 
 
 
 
 
 
Current Aviation Weather for KCOM

Weather Summary


The most recent METAR observation for COM was updated at: 12:55 UTC
METAR for COM is not available. Closest METAR is for
METAR

METAR KCOM 261335Z 00000KT 10SM BKN015 22/20 A3011 RMK AO2 T02230195

METAR KCOM 261315Z 00000KT 10SM SCT015 22/20 A3011 RMK AO2 T02180195

METAR KCOM 261255Z 00000KT 10SM CLR 21/19 A3010 RMK AO2 T02110192

METAR KCOM 261235Z 00000KT 10SM CLR 21/19 A3009 RMK AO2 T02050190

METAR KCOM 261215Z 00000KT 10SM CLR 21/19 A3009 RMK AO2 T02050188

METAR KCOM 261155Z 00000KT 10SM CLR 21/19 A3007 RMK AO2 LTG DSNT W T02050188 10251 20205

METAR KCOM 261135Z 00000KT 10SM CLR 21/19 A3007 RMK AO2 T02100190

METAR KCOM 261115Z 00000KT 10SM CLR 21/19 A3006 RMK AO2 LTG DSNT NW T02090190

METAR KCOM 261055Z 00000KT 10SM CLR 22/19 A3006 RMK AO2 LTG DSNT SW T02160190

METAR KBWD 261335Z 00000KT 10SM CLR 24/22 A3009 RMK AO2

TAF for COM is not available.
TAF
Sorry we do not have any TAF information for COM
GlobalAir.com is loading additional information.
 Current Weather at COM
69.0 F° (20.5 C°)

North winds at 0.0 mph
Pressure:
30.07 in
Humidity:
90%
Wind:
North at 0.0 mph
Dew Point:
65.8 F° (18.8 C°)
Visibility:
10.00 mi
COM NOAA Radar




Find All Airport Services Find A Hotel Find A Rental Car Find A Golf Course Find A Restaurant $100 Hamburger



Airport Weather Forecast for KCOM

Translated METAR for KCOM (1335 UTC)
METAR:
KCOM 261335Z AUTO Coleman Municipal, Coleman, TX (KCOM). Aug 26, 1335Z, Automated. Wind is Calm, 10 statute miles visibility, Ceiling is Broken at 1,500 feet, Temperature 22°C, Dewpoint 20°C, Altimeter is 30.11. Remarks: automated station with precipitation discriminator hourly temp 22.3°C dewpoint 19.5°C
Conditions at:
KCOM (Coleman Muni, TX) observed 1335 UTC 26 August 2016
Temperature:
69.0 F° (20.5 C°)
Dewpoint:
not reported - refer to area weather report
Pressure:
30.07 Hg
Winds:
not reported
Visibility:
10.00
Ceiling:
at least 12,000 feet AGL
Clouds:
not reported - refer to area weather report
Remarks:
site is un-manned

Translated TAF for TAF for COM is not available. Refer to local area forecast.
FBO's on the Field
FBO Company Facility Photos Services Transportation Aviation Fuel Prices: Prices include tax
Catering Weather Repair Courtesy Rental Type 100LL JetA JetA+ MOGAS 8087
 
Add another FBO Facility Photos Catering Weather Repair Courtesy Rental Type 100LL JetA JetA+ MOGAS 8087
Services Transportation Aviation Fuel Prices: Prices include tax
There are no FBO's currently reporting fuel at COM. List your FBO now


model-print
model-print
model-print
model-print